Time;durP1;ratioP1;P1;durP2;ratioP2;P2;SDS_P1;SDS_P2;PMS_P1;PMS_P2;Temp;Humidity;BMP_temperature;BMP_pressure;BME280_temperature;BME280_humidity;BME280_pressure;Samples;Min_cycle;Max_cycle;Signal;HPM_P1;HPM_P2
2023/06/22 00:01:35;;;;;;;3.78;3.22;;;26.30;96.70;;;;;;4928057;29;20043;-71
2023/06/22 00:04:03;;;;;;;10.25;4.15;;;26.20;96.70;;;;;;4927906;29;20048;-71
2023/06/22 00:06:32;;;;;;;5.45;3.10;;;26.10;96.70;;;;;;4927338;29;20478;-71
2023/06/22 00:09:00;;;;;;;6.28;3.58;;;26.10;96.70;;;;;;4922752;29;20077;-71
2023/06/22 00:11:32;;;;;;;5.25;3.53;;;26.10;96.70;;;;;;4926145;29;20154;-71
2023/06/22 00:14:14;;;;;;;;;;;26.10;96.70;;;;;;4928794;29;20047;-71
2023/06/22 00:16:43;;;;;;;5.68;3.13;;;26.00;96.70;;;;;;4925651;29;19926;-71
2023/06/22 00:19:11;;;;;;;7.25;3.63;;;26.00;96.70;;;;;;4909766;29;20056;-71
2023/06/22 00:21:39;;;;;;;4.72;3.38;;;26.00;96.70;;;;;;4908900;29;20142;-71
2023/06/22 00:24:07;;;;;;;5.75;3.33;;;26.10;96.70;;;;;;4926815;29;20126;-71
2023/06/22 00:26:37;;;;;;;7.82;3.55;;;26.10;96.70;;;;;;4911461;29;20122;-71
2023/06/22 00:29:37;;;;;;;3.97;3.10;;;26.00;96.70;;;;;;4910110;29;20613;-70
2023/06/22 00:32:40;;;;;;;4.68;3.08;;;26.00;96.70;;;;;;4925229;29;20531;-71
2023/06/22 00:35:29;;;;;;;3.95;3.40;;;25.90;96.70;;;;;;4909690;29;20612;-70
2023/06/22 00:38:04;;;;;;;4.25;3.75;;;25.90;96.70;;;;;;4926922;29;20040;-71
2023/06/22 00:40:33;;;;;;;4.18;3.40;;;25.90;96.70;;;;;;4920009;29;20058;-71
2023/06/22 00:43:03;;;;;;;6.35;3.60;;;25.90;96.70;;;;;;4927360;29;20134;-71
2023/06/22 00:45:31;;;;;;;5.55;3.55;;;25.80;96.70;;;;;;4923712;29;20513;-70
2023/06/22 00:47:59;;;;;;;5.82;3.65;;;25.80;96.70;;;;;;4925107;29;20036;-70
2023/06/22 00:50:33;;;;;;;4.07;3.67;;;25.70;96.70;;;;;;4924857;29;20056;-71
2023/06/22 00:53:08;;;;;;;4.57;3.47;;;25.70;96.70;;;;;;4924213;29;20064;-70
2023/06/22 00:55:43;;;;;;;5.97;3.30;;;25.70;96.70;;;;;;4925169;29;20055;-70
2023/06/22 00:58:13;;;;;;;4.20;3.80;;;25.70;96.70;;;;;;4922125;29;20064;-71
2023/06/22 01:00:42;;;;;;;5.38;3.58;;;25.50;96.70;;;;;;4906892;29;20131;-71
2023/06/22 01:03:10;;;;;;;6.70;3.72;;;25.40;96.70;;;;;;4906050;29;20433;-70
2023/06/22 01:05:40;;;;;;;5.18;3.72;;;25.40;96.70;;;;;;4905262;29;20206;-70
2023/06/22 01:08:20;;;;;;;3.72;3.03;;;25.40;96.70;;;;;;4911428;29;20055;-70
2023/06/22 01:10:54;;;;;;;6.60;3.67;;;25.30;96.70;;;;;;4906416;29;20040;-71
2023/06/22 01:13:32;;;;;;;4.22;3.28;;;25.30;96.70;;;;;;4906181;29;20059;-70
2023/06/22 01:16:06;;;;;;;4.85;3.53;;;25.30;96.70;;;;;;4900935;29;20539;-70
2023/06/22 01:18:40;;;;;;;5.40;3.45;;;25.30;96.70;;;;;;4906131;29;20099;-71
2023/06/22 01:21:12;;;;;;;4.70;3.17;;;25.40;96.70;;;;;;4908043;29;20052;-72
2023/06/22 01:24:13;;;;;;;4.13;3.35;;;25.20;96.70;;;;;;4913008;29;20056;-72
2023/06/22 01:26:47;;;;;;;3.95;3.55;;;25.20;96.70;;;;;;4908043;29;20071;-72
2023/06/22 01:29:19;;;;;;;5.40;3.72;;;25.10;96.70;;;;;;4904862;29;20502;-70
2023/06/22 01:31:50;;;;;;;6.80;3.85;;;25.20;96.70;;;;;;4889428;29;20143;-71
2023/06/22 01:34:20;;;;;;;7.38;3.47;;;25.20;96.70;;;;;;4906347;29;20045;-71
2023/06/22 01:36:49;;;;;;;4.88;3.72;;;25.30;96.70;;;;;;4906526;29;20048;-71
2023/06/22 01:39:18;;;;;;;4.32;3.65;;;25.20;96.70;;;;;;4889416;29;20499;-70
2023/06/22 01:41:48;;;;;;;5.25;3.20;;;25.20;96.70;;;;;;4907233;29;20052;-70
2023/06/22 01:44:18;;;;;;;4.68;3.20;;;25.20;96.70;;;;;;4905281;29;20048;-71
2023/06/22 01:46:49;;;;;;;4.80;3.20;;;25.10;96.70;;;;;;4890072;29;20075;-71
2023/06/22 01:49:20;;;;;;;4.35;3.55;;;25.10;96.70;;;;;;4905494;29;20047;-71
2023/06/22 01:51:48;;;;;;;3.92;3.00;;;25.10;96.70;;;;;;4904804;29;20142;-71
2023/06/22 01:54:16;;;;;;;4.10;3.22;;;25.10;96.70;;;;;;4892694;29;20052;-71
2023/06/22 01:56:47;;;;;;;5.68;3.35;;;25.10;96.70;;;;;;4905854;29;20722;-71
2023/06/22 01:59:23;;;;;;;6.40;3.50;;;25.10;96.70;;;;;;4895281;29;20056;-70
2023/06/22 02:01:54;;;;;;;;;;;25.10;96.70;;;;;;4889529;29;20051;-71
2023/06/22 02:04:27;;;;;;;6.97;3.00;;;25.10;96.70;;;;;;4906137;29;19942;-71
2023/06/22 02:06:59;;;;;;;4.20;3.80;;;25.20;96.70;;;;;;4905509;29;20104;-71
2023/06/22 02:09:31;;;;;;;6.18;3.88;;;25.10;96.70;;;;;;4907279;29;20524;-70
2023/06/22 02:12:02;;;;;;;7.65;3.60;;;24.90;96.70;;;;;;4920234;29;20451;-71
2023/06/22 02:14:32;;;;;;;4.90;3.33;;;24.70;96.70;;;;;;4907513;29;20052;-70
2023/06/22 02:17:01;;;;;;;4.55;3.28;;;24.80;96.70;;;;;;4899882;29;20094;-70
2023/06/22 02:19:33;;;;;;;3.92;3.03;;;24.80;96.70;;;;;;4919378;29;20594;-71
2023/06/22 02:22:01;;;;;;;3.67;3.28;;;24.80;96.70;;;;;;4905523;29;20143;-71
2023/06/22 02:24:31;;;;;;;4.93;3.38;;;24.80;96.70;;;;;;4905728;29;20040;-70
2023/06/22 02:27:00;;;;;;;4.55;3.60;;;24.70;96.70;;;;;;4909175;29;20055;-71
2023/06/22 02:29:28;;;;;;;6.60;3.55;;;24.70;96.70;;;;;;4906805;29;20047;-69
2023/06/22 02:31:58;;;;;;;4.22;3.30;;;24.70;96.70;;;;;;4920941;29;20048;-70
2023/06/22 02:34:26;;;;;;;6.10;3.63;;;24.70;96.70;;;;;;4923907;29;20050;-71
2023/06/22 02:36:54;;;;;;;7.10;3.65;;;24.70;96.70;;;;;;4917728;29;20052;-70
2023/06/22 02:39:23;;;;;;;4.82;3.60;;;24.60;96.70;;;;;;4916278;29;20071;-70
2023/06/22 02:41:53;;;;;;;5.07;3.40;;;24.70;96.70;;;;;;4891871;29;20056;-70
2023/06/22 02:44:22;;;;;;;4.55;3.38;;;24.70;96.70;;;;;;4893346;29;20474;-71
2023/06/22 02:46:50;;;;;;;5.82;3.90;;;24.70;96.70;;;;;;4906923;29;20562;-70
2023/06/22 02:49:20;;;;;;;5.20;3.58;;;24.80;96.70;;;;;;4898814;29;20323;-71
2023/06/22 02:51:49;;;;;;;4.93;3.53;;;24.80;96.70;;;;;;4887791;29;20048;-70
2023/06/22 02:54:20;;;;;;;6.38;3.28;;;24.80;96.70;;;;;;4918384;29;20767;-71
2023/06/22 02:56:54;;;;;;;4.40;3.13;;;24.80;96.70;;;;;;4914057;29;20466;-70
2023/06/22 02:59:32;;;;;;;5.70;3.33;;;24.70;96.70;;;;;;4890067;29;20056;-70
2023/06/22 03:02:11;;;;;;;4.80;3.33;;;24.60;96.70;;;;;;4891136;29;20052;-70
2023/06/22 03:04:42;;;;;;;3.97;3.45;;;24.50;96.70;;;;;;4913713;29;20614;-70
2023/06/22 03:07:10;;;;;;;7.57;3.60;;;24.60;96.70;;;;;;4905850;29;20146;-71
2023/06/22 03:09:38;;;;;;;5.32;3.65;;;24.60;96.70;;;;;;4882093;29;20048;-70
2023/06/22 03:12:07;;;;;;;5.43;3.80;;;24.60;96.70;;;;;;4889382;29;20048;-70
2023/06/22 03:14:42;;;;;;;;;;;24.50;96.70;;;;;;4890018;29;20056;-70
2023/06/22 03:17:11;;;;;;;7.15;3.78;;;24.40;96.70;;;;;;4922341;29;20408;-70
2023/06/22 03:19:41;;;;;;;5.25;3.13;;;24.50;96.70;;;;;;4916500;29;20498;-71
2023/06/22 03:22:09;;;;;;;7.30;3.88;;;24.50;96.70;;;;;;4915417;29;20062;-70
2023/06/22 03:24:40;;;;;;;6.70;3.88;;;24.50;96.70;;;;;;4917650;29;20065;-70
2023/06/22 03:27:08;;;;;;;5.68;4.05;;;24.40;96.70;;;;;;4909364;29;20036;-70
2023/06/22 03:29:36;;;;;;;3.80;3.05;;;24.30;96.70;;;;;;4908975;29;20082;-70
2023/06/22 03:32:05;;;;;;;5.38;3.58;;;24.30;96.70;;;;;;4909385;29;20051;-71
2023/06/22 03:34:35;;;;;;;6.07;3.38;;;24.30;96.70;;;;;;4904784;29;20047;-70
2023/06/22 03:37:05;;;;;;;4.88;3.78;;;24.20;96.70;;;;;;4912647;29;20059;-71
2023/06/22 03:39:33;;;;;;;4.60;3.33;;;24.20;96.70;;;;;;4887735;29;20048;-70
2023/06/22 03:42:01;;;;;;;6.65;4.05;;;24.20;96.70;;;;;;4906998;29;20518;-71
2023/06/22 03:44:29;;;;;;;4.20;3.67;;;24.20;96.70;;;;;;4915066;29;20047;-70
2023/06/22 03:46:57;;;;;;;4.72;3.80;;;24.10;96.70;;;;;;4886408;29;20123;-70
2023/06/22 03:49:24;;;;;;;6.00;3.60;;;24.10;96.70;;;;;;4906554;29;20514;-71
2023/06/22 03:51:53;;;;;;;7.25;3.95;;;24.10;96.70;;;;;;4909552;29;20058;-70
2023/06/22 03:54:22;;;;;;;6.18;3.53;;;24.00;96.70;;;;;;4909885;29;20052;-70
2023/06/22 03:56:50;;;;;;;4.38;3.33;;;24.00;96.70;;;;;;4917755;29;20090;-70
2023/06/22 03:59:18;;;;;;;4.57;3.28;;;23.90;96.70;;;;;;4923865;29;20075;-70
2023/06/22 04:01:46;;;;;;;4.70;3.42;;;24.00;96.70;;;;;;4910159;29;20151;-70
2023/06/22 04:04:14;;;;;;;7.63;3.50;;;24.00;96.70;;;;;;4927016;29;20040;-70
2023/06/22 04:06:42;;;;;;;4.93;2.97;;;23.90;96.70;;;;;;4927898;29;20138;-70
2023/06/22 04:09:11;;;;;;;5.97;3.38;;;23.70;96.70;;;;;;4921208;29;20060;-70
2023/06/22 04:11:40;;;;;;;4.40;3.08;;;23.60;96.70;;;;;;4907984;29;20071;-70
2023/06/22 04:14:08;;;;;;;4.32;3.13;;;23.70;96.70;;;;;;4905859;29;20075;-71
2023/06/22 04:16:36;;;;;;;4.65;4.10;;;23.70;96.70;;;;;;4905295;29;20074;-70
2023/06/22 04:19:04;;;;;;;6.03;3.72;;;23.70;96.70;;;;;;4903273;29;20474;-70
2023/06/22 04:21:37;;;;;;;4.10;3.45;;;23.80;96.70;;;;;;4905761;29;20056;-70
2023/06/22 04:24:06;;;;;;;5.10;3.17;;;23.90;96.70;;;;;;4904424;29;20584;-70
2023/06/22 04:26:36;;;;;;;5.57;3.50;;;23.70;96.70;;;;;;4905405;29;20527;-70
2023/06/22 04:29:05;;;;;;;5.53;3.85;;;23.80;96.70;;;;;;4905252;29;20071;-70
2023/06/22 04:31:36;;;;;;;4.43;3.20;;;23.80;96.70;;;;;;4909697;29;20107;-70
2023/06/22 04:34:08;;;;;;;5.32;4.25;;;23.70;96.70;;;;;;4920267;29;20082;-70
2023/06/22 04:36:38;;;;;;;7.28;4.25;;;23.80;96.70;;;;;;4881093;29;20522;-70
2023/06/22 04:39:07;;;;;;;5.65;4.97;;;23.80;96.70;;;;;;4919736;29;20208;-70
2023/06/22 04:41:41;;;;;;;7.07;5.13;;;23.70;96.70;;;;;;4907812;29;20059;-70
2023/06/22 04:44:23;;;;;;;9.68;5.82;;;23.70;96.70;;;;;;4922360;29;20060;-70
2023/06/22 04:46:59;;;;;;;9.82;6.88;;;23.80;96.70;;;;;;4914355;29;20048;-70
2023/06/22 04:49:35;;;;;;;10.93;6.93;;;23.90;96.70;;;;;;4918449;29;20082;-70
2023/06/22 04:52:05;;;;;;;9.63;6.27;;;24.00;96.70;;;;;;4926532;29;20494;-70
2023/06/22 04:54:34;;;;;;;9.70;6.28;;;24.10;96.70;;;;;;4926731;29;20292;-70
2023/06/22 04:57:03;;;;;;;9.27;5.30;;;24.10;96.70;;;;;;4923677;29;20067;-70
2023/06/22 04:59:32;;;;;;;6.05;4.18;;;24.10;96.70;;;;;;4925582;29;20060;-71
2023/06/22 05:02:02;;;;;;;5.88;4.00;;;24.10;96.70;;;;;;4927151;29;20052;-71
2023/06/22 05:04:35;;;;;;;10.32;4.15;;;24.20;96.70;;;;;;4922977;29;20147;-70
2023/06/22 05:07:04;;;;;;;10.98;3.80;;;24.20;96.70;;;;;;4923159;29;20057;-70
2023/06/22 05:09:33;;;;;;;4.80;3.80;;;24.10;96.70;;;;;;4923830;29;20581;-70
2023/06/22 05:12:04;;;;;;;3.92;3.47;;;24.10;96.70;;;;;;4909128;29;20107;-70
2023/06/22 05:14:37;;;;;;;4.47;4.03;;;24.30;96.70;;;;;;4923456;29;20062;-70
2023/06/22 05:17:13;;;;;;;6.85;3.90;;;24.30;96.70;;;;;;4924769;29;20130;-70
2023/06/22 05:19:44;;;;;;;5.63;3.47;;;24.30;96.70;;;;;;4923878;29;20094;-70
2023/06/22 05:22:13;;;;;;;4.82;3.25;;;24.40;96.70;;;;;;4926292;29;20051;-70
2023/06/22 05:24:41;;;;;;;7.75;3.75;;;24.40;96.70;;;;;;4925882;29;20139;-70
2023/06/22 05:27:09;;;;;;;6.38;3.40;;;24.50;96.70;;;;;;4924444;29;20039;-70
2023/06/22 05:29:39;;;;;;;5.10;3.30;;;24.40;96.70;;;;;;4925488;29;20731;-70
2023/06/22 05:32:07;;;;;;;5.88;3.60;;;24.50;96.70;;;;;;4906331;29;20062;-72
2023/06/22 05:34:35;;;;;;;5.68;3.63;;;24.50;96.70;;;;;;4922394;29;20739;-71
2023/06/22 05:37:03;;;;;;;7.13;3.38;;;24.60;96.70;;;;;;4924450;29;20130;-73
2023/06/22 05:39:32;;;;;;;5.47;3.97;;;24.60;96.70;;;;;;4929906;29;20059;-71
2023/06/22 05:42:01;;;;;;;7.78;4.13;;;24.60;96.70;;;;;;4928160;29;20055;-71
2023/06/22 05:44:29;;;;;;;8.73;3.88;;;24.70;96.70;;;;;;4915886;29;20039;-71
2023/06/22 05:46:58;;;;;;;5.70;3.90;;;24.60;96.70;;;;;;4924013;29;20052;-71
2023/06/22 05:49:32;;;;;;;5.55;3.70;;;24.60;96.70;;;;;;4922174;29;20565;-71
2023/06/22 05:52:00;;;;;;;8.10;3.67;;;24.70;96.70;;;;;;4908020;29;20091;-71
2023/06/22 05:54:28;;;;;;;11.02;4.57;;;24.70;96.70;;;;;;4924160;29;20055;-71
2023/06/22 05:56:56;;;;;;;8.40;3.88;;;24.80;96.70;;;;;;4921889;29;20052;-70
2023/06/22 05:59:25;;;;;;;5.57;3.83;;;24.80;96.70;;;;;;4923519;29;20435;-71
2023/06/22 06:01:52;;;;;;;6.32;3.55;;;24.80;96.70;;;;;;4919822;29;20051;-71
2023/06/22 06:04:22;;;;;;;5.53;3.95;;;24.90;96.70;;;;;;4920097;29;20455;-70
2023/06/22 06:06:50;;;;;;;5.50;4.10;;;24.90;96.70;;;;;;4925536;29;20068;-70
2023/06/22 06:09:17;;;;;;;6.70;4.13;;;24.90;96.70;;;;;;4924398;29;20458;-70
2023/06/22 06:11:45;;;;;;;5.93;4.28;;;24.90;96.70;;;;;;4918988;29;20043;-71
2023/06/22 06:14:13;;;;;;;5.40;4.18;;;24.90;96.70;;;;;;4908234;29;20075;-70
2023/06/22 06:16:41;;;;;;;8.13;4.63;;;24.80;96.70;;;;;;4923737;29;20074;-70
2023/06/22 06:19:09;;;;;;;5.80;4.00;;;24.80;96.70;;;;;;4919624;29;20047;-70
2023/06/22 06:21:38;;;;;;;8.95;4.32;;;24.80;96.70;;;;;;4919283;29;20453;-72
2023/06/22 06:24:06;;;;;;;7.95;5.00;;;24.80;96.70;;;;;;4924193;29;20039;-72
2023/06/22 06:26:35;;;;;;;9.00;5.13;;;24.90;96.70;;;;;;4924155;29;20066;-74
2023/06/22 06:29:03;;;;;;;7.72;5.32;;;24.90;96.70;;;;;;4922627;29;20119;-71
2023/06/22 06:31:31;;;;;;;9.25;5.88;;;24.90;96.70;;;;;;4924402;29;20055;-71
2023/06/22 06:33:59;;;;;;;10.85;6.05;;;25.00;96.70;;;;;;4924867;29;20048;-71
2023/06/22 06:36:28;;;;;;;10.48;6.63;;;25.10;96.70;;;;;;4919777;29;20051;-71
2023/06/22 06:38:58;;;;;;;13.10;8.05;;;25.10;96.70;;;;;;4924307;29;20525;-71
2023/06/22 06:41:26;;;;;;;11.75;7.45;;;25.20;96.70;;;;;;4920951;29;20055;-71
2023/06/22 06:43:54;;;;;;;10.63;7.47;;;25.20;96.70;;;;;;4920199;29;20044;-71
2023/06/22 06:46:22;;;;;;;12.38;7.60;;;25.30;96.70;;;;;;4920797;29;20417;-71
2023/06/22 06:48:59;;;;;;;9.70;6.75;;;25.40;96.70;;;;;;4921935;29;20040;-73
2023/06/22 06:51:28;;;;;;;10.05;6.35;;;25.50;96.70;;;;;;4924979;29;20657;-73
2023/06/22 06:53:57;;;;;;;7.75;5.50;;;25.60;96.70;;;;;;4924301;29;20050;-72
2023/06/22 06:56:30;;;;;;;9.90;4.95;;;25.70;96.70;;;;;;4921906;29;20054;-71
2023/06/22 06:59:01;;;;;;;9.13;5.10;;;25.80;96.70;;;;;;4920149;29;20088;-72
2023/06/22 07:01:33;;;;;;;6.00;5.03;;;25.90;96.70;;;;;;4928698;29;20417;-72
2023/06/22 07:04:02;;;;;;;10.25;4.47;;;26.10;96.70;;;;;;4928176;29;20050;-71
2023/06/22 07:06:32;;;;;;;7.13;4.80;;;26.20;96.70;;;;;;4929072;29;20487;-71
2023/06/22 07:09:03;;;;;;;9.05;4.35;;;26.30;96.70;;;;;;4926951;28;20044;-70
2023/06/22 07:11:31;;;;;;;7.72;4.80;;;26.40;96.70;;;;;;4927480;29;20489;-71
2023/06/22 07:14:01;;;;;;;7.68;4.60;;;26.50;96.70;;;;;;4924907;29;20067;-70
2023/06/22 07:16:31;;;;;;;5.55;4.40;;;26.60;96.70;;;;;;4896124;29;20518;-71
2023/06/22 07:19:00;;;;;;;6.20;4.82;;;26.70;96.70;;;;;;4928055;29;20126;-71
2023/06/22 07:21:28;;;;;;;10.05;5.50;;;26.80;96.70;;;;;;4923956;29;20060;-70
2023/06/22 07:23:56;;;;;;;10.52;5.05;;;26.90;96.70;;;;;;4923056;29;20440;-71
2023/06/22 07:26:26;;;;;;;8.25;4.95;;;27.00;96.70;;;;;;4925584;29;20048;-71
2023/06/22 07:28:54;;;;;;;8.10;5.28;;;27.10;96.70;;;;;;4928030;29;20534;-71
2023/06/22 07:31:24;;;;;;;5.95;4.90;;;27.20;96.70;;;;;;4928674;29;20101;-71
2023/06/22 07:33:52;;;;;;;7.95;5.40;;;27.20;96.70;;;;;;4928339;29;20138;-72
2023/06/22 07:36:20;;;;;;;5.75;4.40;;;27.30;96.70;;;;;;4895314;29;20114;-71
2023/06/22 07:38:49;;;;;;;5.93;5.18;;;27.40;96.70;;;;;;4923107;29;20379;-71
2023/06/22 07:41:17;;;;;;;6.80;5.22;;;27.50;96.70;;;;;;4923216;29;20498;-71
2023/06/22 07:43:46;;;;;;;12.63;5.38;;;27.60;96.70;;;;;;4911394;29;20048;-71
2023/06/22 07:46:15;;;;;;;8.27;4.90;;;27.70;96.70;;;;;;4927546;29;20051;-71
2023/06/22 07:48:44;;;;;;;7.03;5.43;;;27.80;96.70;;;;;;4920937;29;20055;-71
2023/06/22 07:51:12;;;;;;;9.02;5.38;;;27.80;96.70;;;;;;4922951;29;20261;-71
2023/06/22 07:53:41;;;;;;;8.00;5.20;;;27.90;96.70;;;;;;4923319;29;20056;-71
2023/06/22 07:56:10;;;;;;;7.93;5.47;;;28.00;96.70;;;;;;4907504;29;20174;-71
2023/06/22 07:58:39;;;;;;;6.63;5.13;;;28.10;96.70;;;;;;4924041;29;20615;-71
2023/06/22 08:01:09;;;;;;;7.22;5.03;;;28.10;96.70;;;;;;4910862;29;20077;-71
2023/06/22 08:03:37;;;;;;;7.60;4.80;;;28.20;96.70;;;;;;4925940;29;20044;-71
2023/06/22 08:06:08;;;;;;;7.90;5.38;;;28.40;96.70;;;;;;4926234;29;20043;-71
2023/06/22 08:08:37;;;;;;;7.10;5.03;;;28.40;96.70;;;;;;4923753;29;20054;-71
2023/06/22 08:11:05;;;;;;;9.70;5.40;;;28.40;96.70;;;;;;4917015;29;20067;-71
2023/06/22 08:13:33;;;;;;;8.88;5.18;;;28.40;96.70;;;;;;4909291;29;20044;-71
2023/06/22 08:16:02;;;;;;;7.32;4.95;;;28.40;96.70;;;;;;4898219;29;20060;-72
2023/06/22 08:18:31;;;;;;;8.40;5.00;;;28.50;96.70;;;;;;4891293;29;20048;-72
2023/06/22 08:21:00;;;;;;;10.13;5.22;;;28.50;96.70;;;;;;4908695;29;20095;-71
2023/06/22 08:23:30;;;;;;;8.40;5.07;;;28.60;96.70;;;;;;4911449;29;20417;-71
2023/06/22 08:25:58;;;;;;;7.72;4.80;;;28.50;96.70;;;;;;4917186;29;20048;-71
2023/06/22 08:28:30;;;;;;;7.28;4.57;;;28.60;96.70;;;;;;4924457;29;20505;-71
2023/06/22 08:30:58;;;;;;;8.02;5.03;;;28.80;96.70;;;;;;4922060;29;20052;-71
2023/06/22 08:33:28;;;;;;;9.32;4.70;;;28.90;96.70;;;;;;4916696;29;20394;-71
2023/06/22 08:35:59;;;;;;;8.70;4.50;;;28.90;96.70;;;;;;4921782;29;20040;-71
2023/06/22 08:38:29;;;;;;;7.95;4.95;;;29.00;96.70;;;;;;4910071;29;20056;-71
2023/06/22 08:40:57;;;;;;;6.50;4.75;;;29.10;96.70;;;;;;4900752;29;20060;-71
2023/06/22 08:43:25;;;;;;;8.45;4.82;;;29.10;96.70;;;;;;4925718;29;20040;-71
2023/06/22 08:45:53;;;;;;;8.60;4.85;;;29.20;96.70;;;;;;4908643;29;20396;-71
2023/06/22 08:48:21;;;;;;;8.00;4.65;;;29.20;96.70;;;;;;4907303;29;20064;-71
2023/06/22 08:50:50;;;;;;;5.15;4.60;;;29.20;96.70;;;;;;4915838;29;20047;-71
2023/06/22 08:53:20;;;;;;;7.53;4.80;;;29.40;96.70;;;;;;4885390;29;20056;-71
2023/06/22 08:55:48;;;;;;;10.57;4.78;;;29.50;96.70;;;;;;4917463;29;20040;-72
2023/06/22 08:58:16;;;;;;;7.63;4.40;;;29.60;96.70;;;;;;4905160;29;20060;-71
2023/06/22 09:00:44;;;;;;;7.47;4.90;;;29.70;96.70;;;;;;4917171;29;20701;-71
2023/06/22 09:03:12;;;;;;;8.18;4.50;;;29.70;96.70;;;;;;4915914;29;20084;-71
2023/06/22 09:05:41;;;;;;;8.55;4.35;;;29.80;96.70;;;;;;4919607;29;20489;-71
2023/06/22 09:08:09;;;;;;;4.65;4.10;;;29.90;96.70;;;;;;4888096;29;20502;-71
2023/06/22 09:10:39;;;;;;;9.10;4.55;;;30.00;96.70;;;;;;4920108;29;20055;-71
2023/06/22 09:13:07;;;;;;;6.15;4.13;;;30.10;96.70;;;;;;4911927;29;20481;-71
2023/06/22 09:15:35;;;;;;;9.57;4.45;;;30.10;96.70;;;;;;4888367;29;20051;-71
2023/06/22 09:18:03;;;;;;;8.43;4.32;;;30.30;96.70;;;;;;4914228;29;20074;-71
2023/06/22 09:20:32;;;;;;;4.57;3.60;;;30.40;96.70;;;;;;4899292;29;20051;-71
2023/06/22 09:23:00;;;;;;;5.28;3.53;;;30.40;96.70;;;;;;4923923;29;20047;-72
2023/06/22 09:25:28;;;;;;;5.10;3.88;;;30.60;96.70;;;;;;4893214;29;20052;-72
2023/06/22 09:27:59;;;;;;;9.35;3.97;;;30.70;96.70;;;;;;4906334;29;20114;-72
2023/06/22 09:30:27;;;;;;;4.43;3.25;;;30.90;96.70;;;;;;4923355;29;20066;-73
2023/06/22 09:32:55;;;;;;;5.57;3.78;;;31.00;96.70;;;;;;4917464;29;20395;-71
2023/06/22 09:35:24;;;;;;;7.57;3.58;;;31.10;96.70;;;;;;4893280;29;20458;-71
2023/06/22 09:37:52;;;;;;;4.57;3.50;;;31.20;96.70;;;;;;4914854;29;20044;-71
2023/06/22 09:40:23;;;;;;;5.28;3.60;;;31.30;96.70;;;;;;4923118;29;20775;-70
2023/06/22 09:42:51;;;;;;;8.85;3.50;;;31.30;96.70;;;;;;4924474;29;20083;-71
2023/06/22 09:45:20;;;;;;;6.40;3.70;;;31.30;96.70;;;;;;4911210;29;20470;-70
2023/06/22 09:47:49;;;;;;;5.07;3.55;;;31.40;96.70;;;;;;4909170;29;20040;-71
2023/06/22 09:50:17;;;;;;;5.40;3.47;;;31.50;96.70;;;;;;4903230;29;20849;-70
2023/06/22 09:52:50;;;;;;;8.18;3.90;;;31.40;96.70;;;;;;4920795;29;20067;-70
2023/06/22 09:55:18;;;;;;;7.30;3.63;;;31.40;96.70;;;;;;4913423;29;20438;-70
2023/06/22 09:58:15;;;;;;;7.90;3.53;;;31.60;96.70;;;;;;4918594;29;20056;-71
2023/06/22 10:00:45;;;;;;;5.13;3.20;;;31.70;96.70;;;;;;4920771;29;20051;-71
2023/06/22 10:03:13;;;;;;;3.50;3.20;;;31.70;96.70;;;;;;4924710;29;20091;-71
2023/06/22 10:05:42;;;;;;;5.07;3.72;;;31.80;96.70;;;;;;4914179;29;20063;-71
2023/06/22 10:08:13;;;;;;;6.03;3.53;;;31.90;96.70;;;;;;4925728;29;20098;-71
2023/06/22 10:10:41;;;;;;;7.47;3.80;;;31.90;96.70;;;;;;4926132;29;20043;-71
2023/06/22 10:13:11;;;;;;;5.93;3.45;;;32.00;96.70;;;;;;4921014;29;20059;-71
2023/06/22 10:15:39;;;;;;;4.15;3.22;;;32.10;96.70;;;;;;4924139;29;20442;-71
2023/06/22 10:18:09;;;;;;;7.22;2.90;;;32.10;96.70;;;;;;4924932;29;20036;-71
2023/06/22 10:20:37;;;;;;;7.30;3.83;;;32.20;96.70;;;;;;4918063;29;20051;-72
2023/06/22 10:23:06;;;;;;;4.10;3.33;;;32.40;96.70;;;;;;4925331;29;20054;-72
2023/06/22 10:25:34;;;;;;;3.40;3.08;;;32.50;96.70;;;;;;4907759;29;20467;-72
2023/06/22 10:28:02;;;;;;;4.15;3.05;;;32.70;96.70;;;;;;4925736;29;20044;-72
2023/06/22 10:30:31;;;;;;;5.38;3.20;;;32.90;96.70;;;;;;4923683;29;20130;-72
2023/06/22 10:32:59;;;;;;;4.25;3.13;;;32.80;96.70;;;;;;4926370;29;20040;-72
2023/06/22 10:35:28;;;;;;;3.83;2.88;;;32.80;96.70;;;;;;4928896;29;20047;-72
2023/06/22 10:37:57;;;;;;;3.78;2.42;;;33.00;96.70;;;;;;4928019;29;20048;-72
2023/06/22 10:40:25;;;;;;;3.50;2.55;;;33.20;96.70;;;;;;4929882;29;20040;-72
2023/06/22 10:42:54;;;;;;;4.82;2.55;;;33.40;96.70;;;;;;4929290;29;20059;-72
2023/06/22 10:45:22;;;;;;;3.55;2.78;;;33.50;96.70;;;;;;4915657;29;20139;-71
2023/06/22 10:47:50;;;;;;;3.80;2.35;;;33.50;96.70;;;;;;4927004;29;20170;-71
2023/06/22 10:50:20;;;;;;;3.03;2.45;;;33.70;96.70;;;;;;4911633;29;20044;-71
2023/06/22 10:52:49;;;;;;;5.20;2.47;;;33.70;96.70;;;;;;4925178;29;20051;-71
2023/06/22 10:55:18;;;;;;;5.63;2.97;;;34.00;96.70;;;;;;4924571;29;20432;-71
2023/06/22 10:57:46;;;;;;;4.95;2.78;;;34.10;96.70;;;;;;4929495;29;20099;-71
2023/06/22 11:00:15;;;;;;;4.05;2.50;;;34.00;96.70;;;;;;4903792;29;20155;-70
2023/06/22 11:02:44;;;;;;;4.30;2.88;;;34.10;96.70;;;;;;4926373;29;20492;-70
2023/06/22 11:05:13;;;;;;;5.88;2.80;;;34.10;96.70;;;;;;4928567;29;20054;-71
2023/06/22 11:07:43;;;;;;;7.07;3.03;;;34.20;96.70;;;;;;4930650;29;20043;-72
2023/06/22 11:10:20;;;;;;;5.80;3.22;;;34.40;96.70;;;;;;4928041;29;20046;-71
2023/06/22 11:13:09;;;;;;;4.05;2.60;;;34.40;96.70;;;;;;4924307;29;20115;-71
2023/06/22 11:15:39;;;;;;;3.92;2.53;;;34.30;96.70;;;;;;4920892;29;20478;-71
2023/06/22 11:18:08;;;;;;;4.25;2.90;;;34.60;96.70;;;;;;4919830;29;20781;-71
2023/06/22 11:20:38;;;;;;;4.72;3.03;;;34.50;96.70;;;;;;4919984;29;20487;-72
2023/06/22 11:23:07;;;;;;;5.07;2.63;;;34.20;96.70;;;;;;4910516;29;20062;-71
2023/06/22 11:25:38;;;;;;;5.97;3.35;;;34.40;96.70;;;;;;4924736;29;20087;-71
2023/06/22 11:28:06;;;;;;;3.40;3.08;;;34.70;96.70;;;;;;4920589;29;20487;-71
2023/06/22 11:30:34;;;;;;;5.88;3.03;;;34.90;96.70;;;;;;4924475;29;20532;-71
2023/06/22 11:33:02;;;;;;;6.18;3.20;;;34.80;96.70;;;;;;4925640;29;20510;-71
2023/06/22 11:35:30;;;;;;;6.72;3.38;;;35.10;96.70;;;;;;4919001;29;20174;-69
2023/06/22 11:37:59;;;;;;;4.75;2.70;;;35.30;96.70;;;;;;4928271;29;20098;-70
2023/06/22 11:40:27;;;;;;;7.25;3.20;;;35.50;96.70;;;;;;4927984;29;20046;-70
2023/06/22 11:42:57;;;;;;;6.82;3.03;;;35.60;96.70;;;;;;4923082;29;20484;-69
2023/06/22 11:45:25;;;;;;;4.50;2.67;;;35.60;96.70;;;;;;4923995;29;20444;-69
2023/06/22 11:47:54;;;;;;;5.15;2.90;;;35.60;96.70;;;;;;4922623;29;20054;-70
2023/06/22 11:50:22;;;;;;;7.45;3.30;;;35.70;96.70;;;;;;4919772;29;20484;-70
2023/06/22 11:52:52;;;;;;;3.22;2.85;;;35.70;96.70;;;;;;4923470;29;20047;-70
2023/06/22 11:55:21;;;;;;;6.55;3.33;;;35.50;96.70;;;;;;4928678;29;20641;-70
2023/06/22 11:57:59;;;;;;;3.42;3.13;;;35.60;96.70;;;;;;4934463;29;20054;-70
2023/06/22 12:00:28;;;;;;;3.97;3.05;;;35.80;96.70;;;;;;4925242;29;20782;-70
2023/06/22 12:02:57;;;;;;;5.05;3.28;;;36.00;96.70;;;;;;4919984;29;20118;-70
2023/06/22 12:05:28;;;;;;;4.43;3.30;;;36.00;96.70;;;;;;4923582;29;20095;-71
2023/06/22 12:07:56;;;;;;;6.60;3.15;;;36.10;96.70;;;;;;4927772;29;20051;-71
2023/06/22 12:10:26;;;;;;;4.47;3.10;;;36.30;96.70;;;;;;4925419;29;20047;-70
2023/06/22 12:12:54;;;;;;;7.30;3.47;;;36.40;96.70;;;;;;4910364;29;20048;-70
2023/06/22 12:15:24;;;;;;;4.03;3.05;;;36.30;96.70;;;;;;4925494;29;20062;-70
2023/06/22 12:17:52;;;;;;;5.93;3.30;;;36.10;96.70;;;;;;4922109;29;20135;-70
2023/06/22 12:20:20;;;;;;;5.15;3.17;;;35.90;96.70;;;;;;4907773;29;20255;-71
2023/06/22 12:22:51;;;;;;;3.67;2.85;;;36.10;96.70;;;;;;4906539;29;20594;-71
2023/06/22 12:25:20;;;;;;;6.03;2.70;;;36.30;96.70;;;;;;4925356;29;20051;-71
2023/06/22 12:27:48;;;;;;;4.40;3.20;;;36.50;96.70;;;;;;4925900;29;20048;-70
2023/06/22 12:30:16;;;;;;;5.78;3.00;;;36.60;96.70;;;;;;4912044;29;20868;-71
2023/06/22 12:32:46;;;;;;;5.07;2.78;;;36.50;96.70;;;;;;4926183;29;20099;-71
2023/06/22 12:35:14;;;;;;;5.10;3.05;;;36.30;96.70;;;;;;4926316;29;20130;-71
2023/06/22 12:37:43;;;;;;;6.85;3.35;;;36.20;96.70;;;;;;4927068;29;20502;-71
2023/06/22 12:40:11;;;;;;;3.65;3.17;;;36.40;96.70;;;;;;4908924;29;20048;-71
2023/06/22 12:42:41;;;;;;;5.78;3.70;;;36.50;96.70;;;;;;4917213;29;20058;-70
2023/06/22 12:45:10;;;;;;;7.53;3.83;;;36.50;96.70;;;;;;4925348;29;20451;-71
2023/06/22 12:47:38;;;;;;;5.57;3.15;;;36.60;96.70;;;;;;4927009;29;20106;-71
2023/06/22 12:50:09;;;;;;;5.18;3.22;;;36.60;96.70;;;;;;4922294;29;20051;-70
2023/06/22 12:52:39;;;;;;;5.20;2.90;;;36.90;96.70;;;;;;4929995;29;20051;-71
2023/06/22 12:55:08;;;;;;;8.57;3.08;;;36.70;96.70;;;;;;4923904;29;20052;-71
2023/06/22 12:57:36;;;;;;;4.65;3.47;;;36.60;96.70;;;;;;4908148;29;20047;-70
2023/06/22 13:00:10;;;;;;;7.03;3.55;;;37.00;96.70;;;;;;4915340;29;20051;-70
2023/06/22 13:02:42;;;;;;;5.43;3.35;;;37.30;96.70;;;;;;4902388;29;20052;-70